sensor_id;sensor_type;location;lat;lon;timestamp;P1;durP1;ratioP1;P2;durP2;ratioP2
52798;SDS011;38667;42.872;74.622;2022-07-23T00:00:43;10.07;;;3.45;;
52798;SDS011;38667;42.872;74.622;2022-07-23T00:03:09;12.63;;;3.13;;
52798;SDS011;38667;42.872;74.622;2022-07-23T00:05:35;7.13;;;2.05;;
52798;SDS011;38667;42.872;74.622;2022-07-23T00:08:01;10.48;;;2.65;;
52798;SDS011;38667;42.872;74.622;2022-07-23T00:10:28;8.57;;;2.40;;
52798;SDS011;38667;42.872;74.622;2022-07-23T00:12:56;12.70;;;3.20;;
52798;SDS011;38667;42.872;74.622;2022-07-23T00:15:22;10.18;;;2.45;;
52798;SDS011;38667;42.872;74.622;2022-07-23T00:17:49;11.57;;;2.83;;
52798;SDS011;38667;42.872;74.622;2022-07-23T00:20:15;8.55;;;2.42;;
52798;SDS011;38667;42.872;74.622;2022-07-23T00:22:45;7.38;;;2.53;;
52798;SDS011;38667;42.872;74.622;2022-07-23T00:25:12;9.65;;;3.45;;
52798;SDS011;38667;42.872;74.622;2022-07-23T00:27:40;8.88;;;2.58;;
52798;SDS011;38667;42.872;74.622;2022-07-23T00:30:10;9.43;;;2.75;;
52798;SDS011;38667;42.872;74.622;2022-07-23T00:32:44;10.27;;;2.65;;
52798;SDS011;38667;42.872;74.622;2022-07-23T00:35:11;5.55;;;2.70;;
52798;SDS011;38667;42.872;74.622;2022-07-23T00:37:38;12.23;;;3.13;;
52798;SDS011;38667;42.872;74.622;2022-07-23T00:40:05;16.85;;;3.75;;
52798;SDS011;38667;42.872;74.622;2022-07-23T00:42:32;10.63;;;3.45;;
52798;SDS011;38667;42.872;74.622;2022-07-23T00:44:58;6.75;;;2.83;;
52798;SDS011;38667;42.872;74.622;2022-07-23T00:47:26;13.77;;;3.13;;
52798;SDS011;38667;42.872;74.622;2022-07-23T00:49:52;11.82;;;3.53;;
52798;SDS011;38667;42.872;74.622;2022-07-23T00:52:18;7.93;;;3.30;;
52798;SDS011;38667;42.872;74.622;2022-07-23T00:54:45;9.98;;;3.15;;
52798;SDS011;38667;42.872;74.622;2022-07-23T00:57:11;10.70;;;2.90;;
52798;SDS011;38667;42.872;74.622;2022-07-23T00:59:40;8.93;;;3.05;;
52798;SDS011;38667;42.872;74.622;2022-07-23T01:02:07;7.95;;;3.15;;
52798;SDS011;38667;42.872;74.622;2022-07-23T01:04:34;17.85;;;3.95;;
52798;SDS011;38667;42.872;74.622;2022-07-23T01:07:01;7.72;;;2.92;;
52798;SDS011;38667;42.872;74.622;2022-07-23T01:09:27;8.55;;;3.72;;
52798;SDS011;38667;42.872;74.622;2022-07-23T01:11:54;10.05;;;3.25;;
52798;SDS011;38667;42.872;74.622;2022-07-23T01:14:21;10.63;;;2.90;;
52798;SDS011;38667;42.872;74.622;2022-07-23T01:16:48;21.23;;;9.45;;
52798;SDS011;38667;42.872;74.622;2022-07-23T01:19:15;21.52;;;8.80;;
52798;SDS011;38667;42.872;74.622;2022-07-23T01:21:46;19.67;;;8.15;;
52798;SDS011;38667;42.872;74.622;2022-07-23T01:24:15;20.52;;;8.65;;
52798;SDS011;38667;42.872;74.622;2022-07-23T01:26:45;22.25;;;10.50;;
52798;SDS011;38667;42.872;74.622;2022-07-23T01:29:12;74.95;;;48.78;;
52798;SDS011;38667;42.872;74.622;2022-07-23T01:31:39;47.50;;;30.30;;
52798;SDS011;38667;42.872;74.622;2022-07-23T01:34:06;66.65;;;40.80;;
52798;SDS011;38667;42.872;74.622;2022-07-23T01:36:32;54.47;;;37.78;;
52798;SDS011;38667;42.872;74.622;2022-07-23T01:38:59;92.20;;;64.32;;
52798;SDS011;38667;42.872;74.622;2022-07-23T01:41:27;78.07;;;54.75;;
52798;SDS011;38667;42.872;74.622;2022-07-23T01:43:53;78.00;;;53.33;;
52798;SDS011;38667;42.872;74.622;2022-07-23T01:46:20;69.35;;;44.22;;
52798;SDS011;38667;42.872;74.622;2022-07-23T01:48:46;62.10;;;39.72;;
52798;SDS011;38667;42.872;74.622;2022-07-23T01:51:12;47.08;;;34.00;;
52798;SDS011;38667;42.872;74.622;2022-07-23T01:53:39;55.60;;;39.65;;
52798;SDS011;38667;42.872;74.622;2022-07-23T01:56:06;39.53;;;26.63;;
52798;SDS011;38667;42.872;74.622;2022-07-23T01:58:34;40.92;;;26.35;;
52798;SDS011;38667;42.872;74.622;2022-07-23T02:01:00;59.63;;;38.65;;
52798;SDS011;38667;42.872;74.622;2022-07-23T02:03:29;39.90;;;29.15;;
52798;SDS011;38667;42.872;74.622;2022-07-23T02:05:56;46.67;;;33.10;;
52798;SDS011;38667;42.872;74.622;2022-07-23T02:08:22;39.10;;;25.80;;
52798;SDS011;38667;42.872;74.622;2022-07-23T02:10:48;50.95;;;36.38;;
52798;SDS011;38667;42.872;74.622;2022-07-23T02:13:15;58.30;;;36.33;;
52798;SDS011;38667;42.872;74.622;2022-07-23T02:15:43;48.42;;;32.55;;
52798;SDS011;38667;42.872;74.622;2022-07-23T02:18:09;46.78;;;31.33;;
52798;SDS011;38667;42.872;74.622;2022-07-23T02:20:35;20.60;;;11.63;;
52798;SDS011;38667;42.872;74.622;2022-07-23T02:23:02;55.00;;;30.25;;
52798;SDS011;38667;42.872;74.622;2022-07-23T02:25:28;19.13;;;8.90;;
52798;SDS011;38667;42.872;74.622;2022-07-23T02:27:54;10.57;;;4.63;;
52798;SDS011;38667;42.872;74.622;2022-07-23T02:30:21;51.67;;;35.22;;
52798;SDS011;38667;42.872;74.622;2022-07-23T02:32:48;54.40;;;38.08;;
52798;SDS011;38667;42.872;74.622;2022-07-23T02:35:15;40.72;;;25.20;;
52798;SDS011;38667;42.872;74.622;2022-07-23T02:37:41;50.25;;;32.58;;
52798;SDS011;38667;42.872;74.622;2022-07-23T02:40:08;63.35;;;43.53;;
52798;SDS011;38667;42.872;74.622;2022-07-23T02:42:35;23.95;;;12.63;;
52798;SDS011;38667;42.872;74.622;2022-07-23T02:45:01;64.40;;;39.72;;
52798;SDS011;38667;42.872;74.622;2022-07-23T02:47:27;43.40;;;27.38;;
52798;SDS011;38667;42.872;74.622;2022-07-23T02:49:55;16.83;;;7.30;;
52798;SDS011;38667;42.872;74.622;2022-07-23T02:52:22;8.80;;;3.58;;
52798;SDS011;38667;42.872;74.622;2022-07-23T02:54:48;17.27;;;9.10;;
52798;SDS011;38667;42.872;74.622;2022-07-23T02:57:14;37.85;;;27.23;;
52798;SDS011;38667;42.872;74.622;2022-07-23T02:59:40;11.32;;;3.67;;
52798;SDS011;38667;42.872;74.622;2022-07-23T03:02:07;20.48;;;9.45;;
52798;SDS011;38667;42.872;74.622;2022-07-23T03:04:33;11.27;;;3.60;;
52798;SDS011;38667;42.872;74.622;2022-07-23T03:07:01;26.58;;;18.42;;
52798;SDS011;38667;42.872;74.622;2022-07-23T03:09:27;16.02;;;6.88;;
52798;SDS011;38667;42.872;74.622;2022-07-23T03:11:53;11.70;;;3.60;;
52798;SDS011;38667;42.872;74.622;2022-07-23T03:14:20;26.48;;;15.80;;
52798;SDS011;38667;42.872;74.622;2022-07-23T03:16:46;45.47;;;31.75;;
52798;SDS011;38667;42.872;74.622;2022-07-23T03:19:12;6.78;;;3.92;;
52798;SDS011;38667;42.872;74.622;2022-07-23T03:21:38;25.65;;;17.05;;
52798;SDS011;38667;42.872;74.622;2022-07-23T03:24:06;58.35;;;37.65;;
52798;SDS011;38667;42.872;74.622;2022-07-23T03:26:33;91.35;;;65.47;;
52798;SDS011;38667;42.872;74.622;2022-07-23T03:28:59;87.45;;;64.45;;
52798;SDS011;38667;42.872;74.622;2022-07-23T03:31:25;31.00;;;14.90;;
52798;SDS011;38667;42.872;74.622;2022-07-23T03:33:52;14.38;;;3.28;;
52798;SDS011;38667;42.872;74.622;2022-07-23T03:36:18;13.77;;;3.15;;
52798;SDS011;38667;42.872;74.622;2022-07-23T03:38:44;9.50;;;3.30;;
52798;SDS011;38667;42.872;74.622;2022-07-23T03:41:13;31.10;;;19.95;;
52798;SDS011;38667;42.872;74.622;2022-07-23T03:43:39;47.28;;;34.92;;
52798;SDS011;38667;42.872;74.622;2022-07-23T03:46:05;33.25;;;23.75;;
52798;SDS011;38667;42.872;74.622;2022-07-23T03:48:31;9.45;;;5.63;;
52798;SDS011;38667;42.872;74.622;2022-07-23T03:50:58;62.85;;;41.17;;
52798;SDS011;38667;42.872;74.622;2022-07-23T03:53:24;53.03;;;37.53;;
52798;SDS011;38667;42.872;74.622;2022-07-23T03:55:50;30.13;;;16.98;;
52798;SDS011;38667;42.872;74.622;2022-07-23T03:58:18;23.48;;;8.73;;
52798;SDS011;38667;42.872;74.622;2022-07-23T04:00:44;54.58;;;37.42;;
52798;SDS011;38667;42.872;74.622;2022-07-23T04:03:11;19.20;;;10.48;;
52798;SDS011;38667;42.872;74.622;2022-07-23T04:05:37;6.53;;;2.88;;
52798;SDS011;38667;42.872;74.622;2022-07-23T04:08:03;20.83;;;12.25;;
52798;SDS011;38667;42.872;74.622;2022-07-23T04:10:30;7.28;;;2.90;;
52798;SDS011;38667;42.872;74.622;2022-07-23T04:12:56;12.18;;;4.20;;
52798;SDS011;38667;42.872;74.622;2022-07-23T04:15:24;18.83;;;12.50;;
52798;SDS011;38667;42.872;74.622;2022-07-23T04:17:50;38.08;;;27.15;;
52798;SDS011;38667;42.872;74.622;2022-07-23T04:20:17;8.95;;;4.05;;
52798;SDS011;38667;42.872;74.622;2022-07-23T04:22:43;9.60;;;3.00;;
52798;SDS011;38667;42.872;74.622;2022-07-23T04:25:09;40.78;;;26.58;;
52798;SDS011;38667;42.872;74.622;2022-07-23T04:27:35;65.47;;;44.92;;
52798;SDS011;38667;42.872;74.622;2022-07-23T04:30:02;35.47;;;23.60;;
52798;SDS011;38667;42.872;74.622;2022-07-23T04:32:34;49.70;;;33.28;;
52798;SDS011;38667;42.872;74.622;2022-07-23T04:35:01;38.65;;;26.58;;
52798;SDS011;38667;42.872;74.622;2022-07-23T04:37:27;8.82;;;4.15;;
52798;SDS011;38667;42.872;74.622;2022-07-23T04:39:53;60.13;;;40.60;;
52798;SDS011;38667;42.872;74.622;2022-07-23T04:42:20;70.60;;;51.47;;
52798;SDS011;38667;42.872;74.622;2022-07-23T04:44:46;26.02;;;17.40;;
52798;SDS011;38667;42.872;74.622;2022-07-23T04:47:12;53.10;;;37.25;;
52798;SDS011;38667;42.872;74.622;2022-07-23T04:49:40;54.92;;;37.85;;
52798;SDS011;38667;42.872;74.622;2022-07-23T04:52:06;33.80;;;25.42;;
52798;SDS011;38667;42.872;74.622;2022-07-23T04:54:32;56.75;;;42.00;;
52798;SDS011;38667;42.872;74.622;2022-07-23T04:56:59;51.72;;;38.97;;
52798;SDS011;38667;42.872;74.622;2022-07-23T04:59:25;36.40;;;26.65;;
52798;SDS011;38667;42.872;74.622;2022-07-23T05:01:51;59.78;;;44.25;;
52798;SDS011;38667;42.872;74.622;2022-07-23T05:04:18;12.73;;;5.32;;
52798;SDS011;38667;42.872;74.622;2022-07-23T05:06:45;30.73;;;19.83;;
52798;SDS011;38667;42.872;74.622;2022-07-23T05:09:12;53.28;;;38.40;;
52798;SDS011;38667;42.872;74.622;2022-07-23T05:11:38;36.15;;;25.05;;
52798;SDS011;38667;42.872;74.622;2022-07-23T05:14:04;36.08;;;19.20;;
52798;SDS011;38667;42.872;74.622;2022-07-23T05:16:30;23.60;;;15.18;;
52798;SDS011;38667;42.872;74.622;2022-07-23T05:18:57;21.70;;;11.40;;
52798;SDS011;38667;42.872;74.622;2022-07-23T05:21:23;16.17;;;7.47;;
52798;SDS011;38667;42.872;74.622;2022-07-23T05:23:51;20.27;;;6.63;;
52798;SDS011;38667;42.872;74.622;2022-07-23T05:26:17;9.30;;;3.58;;
52798;SDS011;38667;42.872;74.622;2022-07-23T05:28:44;10.18;;;4.38;;
52798;SDS011;38667;42.872;74.622;2022-07-23T05:31:10;12.30;;;4.70;;
52798;SDS011;38667;42.872;74.622;2022-07-23T05:33:36;11.55;;;4.13;;
52798;SDS011;38667;42.872;74.622;2022-07-23T05:36:03;13.15;;;3.25;;
52798;SDS011;38667;42.872;74.622;2022-07-23T05:38:31;9.52;;;3.22;;
52798;SDS011;38667;42.872;74.622;2022-07-23T05:40:59;16.70;;;4.38;;
52798;SDS011;38667;42.872;74.622;2022-07-23T05:43:26;10.75;;;4.13;;
52798;SDS011;38667;42.872;74.622;2022-07-23T05:45:53;8.32;;;3.70;;
52798;SDS011;38667;42.872;74.622;2022-07-23T05:48:19;15.02;;;4.00;;
52798;SDS011;38667;42.872;74.622;2022-07-23T05:50:46;8.82;;;3.92;;
52798;SDS011;38667;42.872;74.622;2022-07-23T05:53:12;12.70;;;4.25;;
52798;SDS011;38667;42.872;74.622;2022-07-23T05:55:38;13.05;;;4.05;;
52798;SDS011;38667;42.872;74.622;2022-07-23T05:58:06;10.32;;;3.92;;
52798;SDS011;38667;42.872;74.622;2022-07-23T06:00:33;11.13;;;4.07;;
52798;SDS011;38667;42.872;74.622;2022-07-23T06:02:59;13.52;;;4.10;;
52798;SDS011;38667;42.872;74.622;2022-07-23T06:05:26;18.90;;;5.13;;
52798;SDS011;38667;42.872;74.622;2022-07-23T06:07:52;16.58;;;5.10;;
52798;SDS011;38667;42.872;74.622;2022-07-23T06:10:18;17.70;;;5.28;;
52798;SDS011;38667;42.872;74.622;2022-07-23T06:12:45;15.52;;;4.70;;
52798;SDS011;38667;42.872;74.622;2022-07-23T06:15:13;13.20;;;4.38;;
52798;SDS011;38667;42.872;74.622;2022-07-23T06:17:39;19.83;;;4.65;;
52798;SDS011;38667;42.872;74.622;2022-07-23T06:20:06;11.75;;;4.50;;
52798;SDS011;38667;42.872;74.622;2022-07-23T06:22:34;13.50;;;4.43;;
52798;SDS011;38667;42.872;74.622;2022-07-23T06:25:00;16.75;;;4.38;;
52798;SDS011;38667;42.872;74.622;2022-07-23T06:27:27;9.38;;;4.47;;
52798;SDS011;38667;42.872;74.622;2022-07-23T06:29:53;13.25;;;4.50;;
52798;SDS011;38667;42.872;74.622;2022-07-23T06:32:21;13.00;;;3.95;;
52798;SDS011;38667;42.872;74.622;2022-07-23T06:34:47;13.75;;;4.03;;
52798;SDS011;38667;42.872;74.622;2022-07-23T06:37:13;15.30;;;3.78;;
52798;SDS011;38667;42.872;74.622;2022-07-23T06:39:40;11.80;;;4.00;;
52798;SDS011;38667;42.872;74.622;2022-07-23T06:42:06;11.52;;;4.35;;
52798;SDS011;38667;42.872;74.622;2022-07-23T06:44:32;17.15;;;4.35;;
52798;SDS011;38667;42.872;74.622;2022-07-23T06:46:59;10.63;;;3.90;;
52798;SDS011;38667;42.872;74.622;2022-07-23T06:49:27;14.95;;;4.45;;
52798;SDS011;38667;42.872;74.622;2022-07-23T06:51:53;20.52;;;5.32;;
52798;SDS011;38667;42.872;74.622;2022-07-23T06:54:19;11.43;;;4.15;;
52798;SDS011;38667;42.872;74.622;2022-07-23T06:56:45;18.85;;;4.82;;
52798;SDS011;38667;42.872;74.622;2022-07-23T06:59:12;14.65;;;5.22;;
52798;SDS011;38667;42.872;74.622;2022-07-23T07:01:38;15.18;;;4.53;;
52798;SDS011;38667;42.872;74.622;2022-07-23T07:04:04;13.70;;;4.95;;
52798;SDS011;38667;42.872;74.622;2022-07-23T07:06:32;14.48;;;4.43;;
52798;SDS011;38667;42.872;74.622;2022-07-23T07:08:58;11.93;;;4.30;;
52798;SDS011;38667;42.872;74.622;2022-07-23T07:11:25;15.70;;;4.97;;
52798;SDS011;38667;42.872;74.622;2022-07-23T07:13:51;13.52;;;4.75;;
52798;SDS011;38667;42.872;74.622;2022-07-23T07:16:17;14.32;;;5.10;;
52798;SDS011;38667;42.872;74.622;2022-07-23T07:18:44;17.33;;;5.20;;
52798;SDS011;38667;42.872;74.622;2022-07-23T07:21:10;12.68;;;4.53;;
52798;SDS011;38667;42.872;74.622;2022-07-23T07:23:38;12.68;;;4.30;;
52798;SDS011;38667;42.872;74.622;2022-07-23T07:26:04;14.65;;;5.68;;
52798;SDS011;38667;42.872;74.622;2022-07-23T07:28:31;9.93;;;3.83;;
52798;SDS011;38667;42.872;74.622;2022-07-23T07:30:57;14.20;;;4.43;;
52798;SDS011;38667;42.872;74.622;2022-07-23T07:33:23;16.80;;;4.30;;
52798;SDS011;38667;42.872;74.622;2022-07-23T07:35:50;18.85;;;4.35;;
52798;SDS011;38667;42.872;74.622;2022-07-23T07:38:16;15.80;;;4.40;;
52798;SDS011;38667;42.872;74.622;2022-07-23T07:40:44;16.55;;;5.55;;
52798;SDS011;38667;42.872;74.622;2022-07-23T07:43:10;13.13;;;4.75;;
52798;SDS011;38667;42.872;74.622;2022-07-23T07:45:36;12.32;;;4.65;;
52798;SDS011;38667;42.872;74.622;2022-07-23T07:48:03;12.63;;;3.80;;
52798;SDS011;38667;42.872;74.622;2022-07-23T07:50:30;14.05;;;4.72;;
52798;SDS011;38667;42.872;74.622;2022-07-23T07:52:56;17.55;;;5.28;;
52798;SDS011;38667;42.872;74.622;2022-07-23T07:55:22;13.90;;;4.65;;
52798;SDS011;38667;42.872;74.622;2022-07-23T07:57:50;16.00;;;6.80;;
52798;SDS011;38667;42.872;74.622;2022-07-23T08:00:17;16.50;;;6.10;;
52798;SDS011;38667;42.872;74.622;2022-07-23T08:02:44;22.27;;;5.72;;
52798;SDS011;38667;42.872;74.622;2022-07-23T08:05:12;14.80;;;4.68;;
52798;SDS011;38667;42.872;74.622;2022-07-23T08:07:39;12.75;;;4.35;;
52798;SDS011;38667;42.872;74.622;2022-07-23T08:10:06;11.75;;;4.07;;
52798;SDS011;38667;42.872;74.622;2022-07-23T08:12:40;12.80;;;5.28;;
52798;SDS011;38667;42.872;74.622;2022-07-23T08:15:09;19.05;;;5.00;;
52798;SDS011;38667;42.872;74.622;2022-07-23T08:17:36;14.65;;;4.95;;
52798;SDS011;38667;42.872;74.622;2022-07-23T08:20:03;16.70;;;6.28;;
52798;SDS011;38667;42.872;74.622;2022-07-23T08:22:43;10.38;;;4.50;;
52798;SDS011;38667;42.872;74.622;2022-07-23T08:25:11;14.02;;;4.45;;
52798;SDS011;38667;42.872;74.622;2022-07-23T08:27:37;16.02;;;5.20;;
52798;SDS011;38667;42.872;74.622;2022-07-23T08:30:04;14.23;;;5.40;;
52798;SDS011;38667;42.872;74.622;2022-07-23T08:32:33;16.13;;;4.13;;
52798;SDS011;38667;42.872;74.622;2022-07-23T08:35:12;11.43;;;4.43;;
52798;SDS011;38667;42.872;74.622;2022-07-23T08:37:38;16.15;;;4.05;;
52798;SDS011;38667;42.872;74.622;2022-07-23T08:40:05;14.07;;;4.03;;
52798;SDS011;38667;42.872;74.622;2022-07-23T08:42:32;15.07;;;4.65;;
52798;SDS011;38667;42.872;74.622;2022-07-23T08:44:58;11.60;;;4.15;;
52798;SDS011;38667;42.872;74.622;2022-07-23T08:47:25;11.82;;;4.40;;
52798;SDS011;38667;42.872;74.622;2022-07-23T08:49:53;10.80;;;4.32;;
52798;SDS011;38667;42.872;74.622;2022-07-23T08:52:20;10.13;;;4.75;;
52798;SDS011;38667;42.872;74.622;2022-07-23T08:54:46;11.10;;;3.50;;
52798;SDS011;38667;42.872;74.622;2022-07-23T08:57:13;12.02;;;4.35;;
52798;SDS011;38667;42.872;74.622;2022-07-23T08:59:40;13.25;;;4.32;;
52798;SDS011;38667;42.872;74.622;2022-07-23T09:02:06;11.10;;;4.07;;
52798;SDS011;38667;42.872;74.622;2022-07-23T09:04:33;7.72;;;3.38;;
52798;SDS011;38667;42.872;74.622;2022-07-23T09:07:02;11.45;;;3.88;;
52798;SDS011;38667;42.872;74.622;2022-07-23T09:09:28;12.55;;;4.00;;
52798;SDS011;38667;42.872;74.622;2022-07-23T09:12:02;11.68;;;4.05;;
52798;SDS011;38667;42.872;74.622;2022-07-23T09:17:14;7.57;;;3.10;;
52798;SDS011;38667;42.872;74.622;2022-07-23T09:19:42;9.15;;;3.92;;
52798;SDS011;38667;42.872;74.622;2022-07-23T09:22:21;8.80;;;3.90;;
52798;SDS011;38667;42.872;74.622;2022-07-23T09:30:22;8.80;;;3.80;;
52798;SDS011;38667;42.872;74.622;2022-07-23T09:33:05;11.02;;;4.05;;
52798;SDS011;38667;42.872;74.622;2022-07-23T09:38:16;9.75;;;4.20;;
52798;SDS011;38667;42.872;74.622;2022-07-23T09:40:43;8.07;;;3.65;;
52798;SDS011;38667;42.872;74.622;2022-07-23T09:43:10;9.35;;;3.92;;
52798;SDS011;38667;42.872;74.622;2022-07-23T09:45:36;8.23;;;3.72;;
52798;SDS011;38667;42.872;74.622;2022-07-23T09:48:12;11.60;;;4.43;;
52798;SDS011;38667;42.872;74.622;2022-07-23T09:50:39;8.43;;;3.83;;
52798;SDS011;38667;42.872;74.622;2022-07-23T09:53:06;9.75;;;3.70;;
52798;SDS011;38667;42.872;74.622;2022-07-23T09:55:34;11.75;;;3.80;;
52798;SDS011;38667;42.872;74.622;2022-07-23T09:58:02;8.73;;;4.38;;
52798;SDS011;38667;42.872;74.622;2022-07-23T10:00:29;12.55;;;4.50;;
52798;SDS011;38667;42.872;74.622;2022-07-23T10:02:56;12.95;;;4.25;;
52798;SDS011;38667;42.872;74.622;2022-07-23T10:05:23;10.57;;;4.35;;
52798;SDS011;38667;42.872;74.622;2022-07-23T10:07:50;10.48;;;4.15;;
52798;SDS011;38667;42.872;74.622;2022-07-23T10:10:17;10.18;;;3.95;;
52798;SDS011;38667;42.872;74.622;2022-07-23T10:12:46;6.63;;;3.88;;
52798;SDS011;38667;42.872;74.622;2022-07-23T10:15:13;4.85;;;2.90;;
52798;SDS011;38667;42.872;74.622;2022-07-23T10:17:39;5.97;;;3.17;;
52798;SDS011;38667;42.872;74.622;2022-07-23T10:20:06;12.43;;;3.30;;
52798;SDS011;38667;42.872;74.622;2022-07-23T10:22:33;9.13;;;3.58;;
52798;SDS011;38667;42.872;74.622;2022-07-23T10:25:08;7.68;;;3.38;;
52798;SDS011;38667;42.872;74.622;2022-07-23T10:27:48;7.43;;;3.50;;
52798;SDS011;38667;42.872;74.622;2022-07-23T10:30:48;12.15;;;4.30;;
52798;SDS011;38667;42.872;74.622;2022-07-23T10:33:27;8.20;;;3.22;;
52798;SDS011;38667;42.872;74.622;2022-07-23T10:36:05;8.00;;;2.83;;
52798;SDS011;38667;42.872;74.622;2022-07-23T10:38:47;7.78;;;3.20;;
52798;SDS011;38667;42.872;74.622;2022-07-23T10:41:30;6.30;;;3.40;;
52798;SDS011;38667;42.872;74.622;2022-07-23T10:44:06;6.90;;;3.25;;
52798;SDS011;38667;42.872;74.622;2022-07-23T10:46:34;9.60;;;3.40;;
52798;SDS011;38667;42.872;74.622;2022-07-23T10:54:47;8.10;;;3.28;;
52798;SDS011;38667;42.872;74.622;2022-07-23T10:57:14;11.68;;;3.50;;
52798;SDS011;38667;42.872;74.622;2022-07-23T11:02:39;5.72;;;3.33;;
52798;SDS011;38667;42.872;74.622;2022-07-23T11:05:07;8.15;;;3.45;;
52798;SDS011;38667;42.872;74.622;2022-07-23T11:07:35;9.68;;;3.40;;
52798;SDS011;38667;42.872;74.622;2022-07-23T11:10:02;7.55;;;3.10;;
52798;SDS011;38667;42.872;74.622;2022-07-23T11:12:33;6.05;;;2.75;;
52798;SDS011;38667;42.872;74.622;2022-07-23T11:15:00;5.70;;;2.65;;
52798;SDS011;38667;42.872;74.622;2022-07-23T11:17:30;6.28;;;3.58;;
52798;SDS011;38667;42.872;74.622;2022-07-23T11:22:47;9.13;;;5.80;;
52798;SDS011;38667;42.872;74.622;2022-07-23T11:25:28;7.05;;;5.20;;
52798;SDS011;38667;42.872;74.622;2022-07-23T11:28:09;6.80;;;4.13;;
52798;SDS011;38667;42.872;74.622;2022-07-23T11:30:37;8.13;;;4.38;;
52798;SDS011;38667;42.872;74.622;2022-07-23T11:33:22;11.07;;;4.93;;
52798;SDS011;38667;42.872;74.622;2022-07-23T11:38:32;9.93;;;4.15;;
52798;SDS011;38667;42.872;74.622;2022-07-23T11:40:58;8.70;;;3.20;;
52798;SDS011;38667;42.872;74.622;2022-07-23T11:43:25;5.32;;;3.13;;
52798;SDS011;38667;42.872;74.622;2022-07-23T11:45:52;8.20;;;2.42;;
52798;SDS011;38667;42.872;74.622;2022-07-23T11:48:20;3.83;;;2.88;;
52798;SDS011;38667;42.872;74.622;2022-07-23T11:50:49;7.38;;;2.00;;
52798;SDS011;38667;42.872;74.622;2022-07-23T11:53:21;10.98;;;5.30;;
52798;SDS011;38667;42.872;74.622;2022-07-23T11:55:48;8.95;;;6.65;;
52798;SDS011;38667;42.872;74.622;2022-07-23T11:58:15;9.75;;;5.30;;
52798;SDS011;38667;42.872;74.622;2022-07-23T12:00:41;8.02;;;4.00;;
52798;SDS011;38667;42.872;74.622;2022-07-23T12:03:08;10.98;;;5.40;;
52798;SDS011;38667;42.872;74.622;2022-07-23T12:05:36;7.75;;;4.68;;
52798;SDS011;38667;42.872;74.622;2022-07-23T12:08:03;13.18;;;5.40;;
52798;SDS011;38667;42.872;74.622;2022-07-23T12:10:33;7.40;;;5.18;;
52798;SDS011;38667;42.872;74.622;2022-07-23T12:13:02;8.93;;;3.78;;
52798;SDS011;38667;42.872;74.622;2022-07-23T12:15:30;5.43;;;2.92;;
52798;SDS011;38667;42.872;74.622;2022-07-23T12:17:58;7.72;;;3.63;;
52798;SDS011;38667;42.872;74.622;2022-07-23T12:20:26;7.75;;;3.88;;
52798;SDS011;38667;42.872;74.622;2022-07-23T12:22:55;11.73;;;6.10;;
52798;SDS011;38667;42.872;74.622;2022-07-23T12:25:24;12.43;;;6.32;;
52798;SDS011;38667;42.872;74.622;2022-07-23T12:28:00;8.95;;;4.70;;
52798;SDS011;38667;42.872;74.622;2022-07-23T12:30:30;17.50;;;9.00;;
52798;SDS011;38667;42.872;74.622;2022-07-23T12:32:58;21.88;;;10.73;;
52798;SDS011;38667;42.872;74.622;2022-07-23T12:35:29;27.27;;;9.32;;
52798;SDS011;38667;42.872;74.622;2022-07-23T12:38:02;14.65;;;7.78;;
52798;SDS011;38667;42.872;74.622;2022-07-23T12:40:30;14.15;;;4.55;;
52798;SDS011;38667;42.872;74.622;2022-07-23T12:42:58;14.98;;;4.68;;
52798;SDS011;38667;42.872;74.622;2022-07-23T12:45:25;19.30;;;5.38;;
52798;SDS011;38667;42.872;74.622;2022-07-23T12:47:56;12.05;;;3.80;;
52798;SDS011;38667;42.872;74.622;2022-07-23T12:50:37;11.40;;;3.80;;
52798;SDS011;38667;42.872;74.622;2022-07-23T12:53:08;16.52;;;4.10;;
52798;SDS011;38667;42.872;74.622;2022-07-23T12:55:36;12.50;;;3.70;;
52798;SDS011;38667;42.872;74.622;2022-07-23T12:58:07;11.90;;;3.08;;
52798;SDS011;38667;42.872;74.622;2022-07-23T13:00:51;12.75;;;2.78;;
52798;SDS011;38667;42.872;74.622;2022-07-23T13:03:30;11.18;;;3.60;;
52798;SDS011;38667;42.872;74.622;2022-07-23T13:05:58;14.68;;;3.00;;
52798;SDS011;38667;42.872;74.622;2022-07-23T13:08:28;8.57;;;2.47;;
52798;SDS011;38667;42.872;74.622;2022-07-23T13:10:55;6.20;;;2.78;;
52798;SDS011;38667;42.872;74.622;2022-07-23T13:13:23;11.32;;;2.65;;
52798;SDS011;38667;42.872;74.622;2022-07-23T13:15:51;11.15;;;2.47;;
52798;SDS011;38667;42.872;74.622;2022-07-23T13:18:18;9.55;;;2.65;;
52798;SDS011;38667;42.872;74.622;2022-07-23T13:20:44;12.43;;;3.35;;
52798;SDS011;38667;42.872;74.622;2022-07-23T13:23:11;10.15;;;2.97;;
52798;SDS011;38667;42.872;74.622;2022-07-23T13:25:39;11.40;;;3.10;;
52798;SDS011;38667;42.872;74.622;2022-07-23T13:28:06;6.45;;;2.45;;
52798;SDS011;38667;42.872;74.622;2022-07-23T13:30:33;8.38;;;2.55;;
52798;SDS011;38667;42.872;74.622;2022-07-23T13:33:00;10.30;;;2.63;;
52798;SDS011;38667;42.872;74.622;2022-07-23T13:35:27;10.32;;;2.78;;
52798;SDS011;38667;42.872;74.622;2022-07-23T13:37:53;8.48;;;2.63;;
52798;SDS011;38667;42.872;74.622;2022-07-23T13:40:20;9.90;;;3.20;;
52798;SDS011;38667;42.872;74.622;2022-07-23T13:42:47;7.45;;;2.70;;
52798;SDS011;38667;42.872;74.622;2022-07-23T13:45:14;11.35;;;2.95;;
52798;SDS011;38667;42.872;74.622;2022-07-23T13:47:41;7.28;;;2.50;;
52798;SDS011;38667;42.872;74.622;2022-07-23T13:50:07;7.25;;;3.00;;
52798;SDS011;38667;42.872;74.622;2022-07-23T13:52:34;10.13;;;2.38;;
52798;SDS011;38667;42.872;74.622;2022-07-23T13:55:00;16.38;;;2.80;;
52798;SDS011;38667;42.872;74.622;2022-07-23T13:57:27;10.73;;;3.05;;
52798;SDS011;38667;42.872;74.622;2022-07-23T13:59:55;8.98;;;2.78;;
52798;SDS011;38667;42.872;74.622;2022-07-23T14:02:21;9.82;;;2.63;;
52798;SDS011;38667;42.872;74.622;2022-07-23T14:04:48;7.80;;;2.40;;
52798;SDS011;38667;42.872;74.622;2022-07-23T14:07:14;9.80;;;2.53;;
52798;SDS011;38667;42.872;74.622;2022-07-23T14:09:41;6.22;;;2.17;;
52798;SDS011;38667;42.872;74.622;2022-07-23T14:12:07;5.15;;;2.80;;
52798;SDS011;38667;42.872;74.622;2022-07-23T14:14:34;15.40;;;2.70;;
52798;SDS011;38667;42.872;74.622;2022-07-23T14:17:02;9.73;;;2.90;;
52798;SDS011;38667;42.872;74.622;2022-07-23T14:19:33;8.60;;;2.67;;
52798;SDS011;38667;42.872;74.622;2022-07-23T14:22:00;9.23;;;2.80;;
52798;SDS011;38667;42.872;74.622;2022-07-23T14:24:26;8.82;;;3.05;;
52798;SDS011;38667;42.872;74.622;2022-07-23T14:26:52;9.93;;;2.80;;
52798;SDS011;38667;42.872;74.622;2022-07-23T14:29:19;9.52;;;2.97;;
52798;SDS011;38667;42.872;74.622;2022-07-23T14:31:45;11.60;;;2.90;;
52798;SDS011;38667;42.872;74.622;2022-07-23T14:34:13;14.32;;;3.65;;
52798;SDS011;38667;42.872;74.622;2022-07-23T14:36:39;8.02;;;2.90;;
52798;SDS011;38667;42.872;74.622;2022-07-23T14:39:06;12.18;;;3.33;;
52798;SDS011;38667;42.872;74.622;2022-07-23T14:41:32;12.27;;;3.22;;
52798;SDS011;38667;42.872;74.622;2022-07-23T14:43:58;17.23;;;4.40;;
52798;SDS011;38667;42.872;74.622;2022-07-23T14:46:25;14.10;;;3.67;;
52798;SDS011;38667;42.872;74.622;2022-07-23T14:48:52;11.45;;;4.70;;
52798;SDS011;38667;42.872;74.622;2022-07-23T14:51:20;15.35;;;4.88;;